Time;durP1;ratioP1;P1;durP2;ratioP2;P2;SDS_P1;SDS_P2;PMS_P1;PMS_P2;Temp;Humidity;BMP_temperature;BMP_pressure;BME280_temperature;BME280_humidity;BME280_pressure;Samples;Min_cycle;Max_cycle;Signal;HPM_P1;HPM_P2
2021/01/05 00:01:03;;;;;;;14.53;7.67;;;;;;;;;;5124999;28;20032;-58
2021/01/05 00:06:50;;;;;;;10.80;7.07;;;;;;;;;;5102986;28;20031;-58
2021/01/05 00:12:25;;;;;;;14.10;7.07;;;;;;;;;;5085090;28;20048;-58
2021/01/05 00:15:09;;;;;;;16.90;9.80;;;;;;;;;;5124527;28;20030;-58
2021/01/05 00:18:08;;;;;;;10.80;9.23;;;;;;;;;;5125101;28;20020;-58
2021/01/05 00:20:48;;;;;;;;;;;;;;;;;;;;;
2021/01/05 00:23:31;;;;;;;16.55;9.02;;;;;;;;;;5014002;28;20117;-58
2021/01/05 00:26:05;;;;;;;12.70;10.97;;;;;;;;;;5106826;28;20032;-58
2021/01/05 00:28:38;;;;;;;16.57;10.93;;;;;;;;;;5091034;28;20032;-59
2021/01/05 00:31:11;;;;;;;11.97;9.90;;;;;;;;;;5124502;28;20535;-58
2021/01/05 00:33:49;;;;;;;12.93;9.37;;;;;;;;;;5106173;28;20043;-59
2021/01/05 00:36:34;;;;;;;;;;;;;;;;;;;;;
2021/01/05 00:39:10;;;;;;;12.10;8.67;;;;;;;;;;5124852;28;20203;-58
2021/01/05 00:42:01;;;;;;;14.20;10.67;;;;;;;;;;5124419;28;20063;-59
2021/01/05 00:44:37;;;;;;;11.93;9.70;;;;;;;;;;5124695;28;20035;-58
2021/01/05 00:47:22;;;;;;;15.33;9.60;;;;;;;;;;5124116;28;20032;-59
2021/01/05 00:56:24;;;;;;;13.30;11.27;;;;;;;;;;5087271;28;20036;-58
2021/01/05 00:59:18;;;;;;;16.53;12.10;;;;;;;;;;5104456;28;20115;-58
2021/01/05 01:05:03;;;;;;;16.93;12.17;;;;;;;;;;5103119;28;20044;-58
2021/01/05 01:07:35;;;;;;;;;;;;;;;;;;5101129;28;20066;-58
2021/01/05 01:10:09;;;;;;;14.10;10.00;;;;;;;;;;5103110;28;19911;-59
2021/01/05 01:12:47;;;;;;;11.67;9.47;;;;;;;;;;5102593;28;20058;-59
2021/01/05 01:15:23;;;;;;;16.30;12.10;;;;;;;;;;5103239;28;20438;-57
2021/01/05 01:18:04;;;;;;;15.73;11.20;;;;;;;;;;5103784;28;20020;-58
2021/01/05 01:20:39;;;;;;;16.30;12.20;;;;;;;;;;5103745;28;20070;-59
2021/01/05 01:23:44;;;;;;;20.20;13.67;;;;;;;;;;5102900;28;20024;-59
2021/01/05 01:29:14;;;;;;;15.30;11.93;;;;;;;;;;5101300;28;20028;-58
2021/01/05 01:31:55;;;;;;;16.40;12.70;;;;;;;;;;5102443;28;20059;-58
2021/01/05 01:34:44;;;;;;;19.37;13.83;;;;;;;;;;5103757;28;20031;-59
2021/01/05 01:37:28;;;;;;;22.90;12.07;;;;;;;;;;5101374;28;20430;-59
2021/01/05 01:40:13;;;;;;;17.77;11.90;;;;;;;;;;5103504;28;20035;-58
2021/01/05 01:42:56;;;;;;;19.20;13.73;;;;;;;;;;5101507;28;20043;-58
2021/01/05 01:45:38;;;;;;;15.03;12.33;;;;;;;;;;5100711;28;20451;-58
2021/01/05 01:48:46;;;;;;;17.77;12.73;;;;;;;;;;5102843;28;20024;-59
2021/01/05 01:51:39;;;;;;;13.70;11.43;;;;;;;;;;5101070;28;20068;-58
2021/01/05 01:54:24;;;;;;;13.33;10.27;;;;;;;;;;5100286;28;20040;-59
2021/01/05 01:56:55;;;;;;;16.17;12.03;;;;;;;;;;5103004;28;20024;-59
2021/01/05 01:59:45;;;;;;;17.87;12.33;;;;;;;;;;5102559;28;20024;-59
2021/01/05 02:02:30;;;;;;;;;;;;;;;;;;;;;
2021/01/05 02:05:24;;;;;;;15.77;13.40;;;;;;;;;;5103101;28;20088;-58
2021/01/05 02:11:34;;;;;;;14.47;9.40;;;;;;;;;;5102046;28;20563;-59
2021/01/05 02:14:37;;;;;;;21.13;12.73;;;;;;;;;;5020355;28;20097;-58
2021/01/05 02:17:33;;;;;;;25.43;11.70;;;;;;;;;;5103207;28;20046;-58
2021/01/05 02:20:18;;;;;;;14.80;11.87;;;;;;;;;;5101399;28;20374;-58
2021/01/05 02:22:55;;;;;;;12.07;9.10;;;;;;;;;;5102308;28;20028;-58
2021/01/05 02:25:39;;;;;;;14.83;10.30;;;;;;;;;;5100777;28;20036;-58
2021/01/05 02:28:20;;;;;;;16.07;9.40;;;;;;;;;;5101032;28;20031;-59
2021/01/05 02:34:13;;;;;;;16.70;11.13;;;;;;;;;;5095293;28;20032;-59
2021/01/05 02:37:47;;;;;;;17.63;11.83;;;;;;;;;;5101637;28;20424;-58
2021/01/05 02:40:23;;;;;;;16.70;11.93;;;;;;;;;;5091358;28;20032;-59
2021/01/05 02:43:17;;;;;;;12.50;10.83;;;;;;;;;;5101319;28;20020;-59
2021/01/05 02:46:15;;;;;;;14.43;11.70;;;;;;;;;;5059360;28;20036;-59
2021/01/05 02:52:10;;;;;;;17.17;11.07;;;;;;;;;;5043836;28;20236;-59
2021/01/05 02:55:04;;;;;;;17.90;11.10;;;;;;;;;;5077316;28;20057;-59
2021/01/05 02:57:53;;;;;;;15.93;11.80;;;;;;;;;;5079482;28;20036;-58
2021/01/05 03:00:38;;;;;;;11.93;9.10;;;;;;;;;;5062829;28;20061;-59
2021/01/05 03:03:31;;;;;;;16.07;11.23;;;;;;;;;;5076087;28;20339;-57
2021/01/05 03:06:36;;;;;;;15.17;11.60;;;;;;;;;;5062695;28;20033;-58
2021/01/05 03:18:25;;;;;;;19.63;12.27;;;;;;;;;;5038017;28;20484;-59
2021/01/05 03:21:12;;;;;;;17.83;13.57;;;;;;;;;;5079489;28;20048;-59
2021/01/05 03:23:44;;;;;;;17.80;12.83;;;;;;;;;;5101675;28;20027;-59
2021/01/05 03:29:30;;;;;;;17.77;11.65;;;;;;;;;;5039112;28;20441;-58
2021/01/05 03:32:07;;;;;;;19.97;11.27;;;;;;;;;;5039459;28;20111;-59
2021/01/05 03:35:21;;;;;;;16.97;12.63;;;;;;;;;;5086241;28;20404;-58
2021/01/05 03:37:48;;;;;;;25.57;12.30;;;;;;;;;;5101001;28;20396;-58
2021/01/05 03:46:40;;;;;;;17.17;11.03;;;;;;;;;;5100488;28;20046;-59
2021/01/05 03:49:33;;;;;;;16.97;13.60;;;;;;;;;;5042887;28;20037;-59
2021/01/05 03:52:09;;;;;;;19.00;14.47;;;;;;;;;;5028621;28;20060;-59
2021/01/05 03:54:49;;;;;;;21.20;14.90;;;;;;;;;;5024429;28;20053;-58
2021/01/05 03:57:36;;;;;;;;;;;;;;;;;;5006936;28;20317;-58
2021/01/05 04:00:13;;;;;;;19.47;14.50;;;;;;;;;;5054925;28;19903;-58
2021/01/05 04:03:07;;;;;;;23.20;15.23;;;;;;;;;;5086801;28;20100;-58
2021/01/05 04:06:05;;;;;;;25.20;15.03;;;;;;;;;;5104713;28;20046;-58
2021/01/05 04:08:46;;;;;;;24.03;15.83;;;;;;;;;;5054194;28;20111;-59
2021/01/05 04:14:56;;;;;;;20.47;14.90;;;;;;;;;;5073876;28;20035;-58
2021/01/05 04:17:31;;;;;;;19.90;15.90;;;;;;;;;;5101277;28;20027;-58
2021/01/05 04:20:18;;;;;;;25.47;17.60;;;;;;;;;;5086111;28;20031;-59
2021/01/05 04:23:08;;;;;;;30.00;16.63;;;;;;;;;;5104236;28;20115;-58
2021/01/05 04:25:44;;;;;;;23.73;18.58;;;;;;;;;;5104530;28;20028;-59
2021/01/05 04:31:27;;;;;;;19.80;14.20;;;;;;;;;;5098330;28;20458;-59
2021/01/05 04:33:59;;;;;;;26.30;17.67;;;;;;;;;;5078407;28;20027;-58
2021/01/05 04:48:34;;;;;;;24.77;16.90;;;;;;;;;;5082043;28;20460;-58
2021/01/05 04:54:39;;;;;;;27.17;16.58;;;;;;;;;;5112160;28;20418;-59
2021/01/05 04:57:33;;;;;;;17.80;14.73;;;;;;;;;;5108348;28;20607;-58
2021/01/05 05:03:38;;;;;;;;;;;;;;;;;;;;;
2021/01/05 05:10:13;;;;;;;23.63;15.33;;;;;;;;;;5081987;28;20385;-59
2021/01/05 05:13:03;;;;;;;19.40;14.77;;;;;;;;;;5113866;28;20043;-59
2021/01/05 05:15:57;;;;;;;22.23;15.70;;;;;;;;;;5116615;28;20558;-59
2021/01/05 05:18:53;;;;;;;24.20;16.27;;;;;;;;;;5098166;28;20554;-59
2021/01/05 05:21:30;;;;;;;23.87;16.13;;;;;;;;;;5117121;28;20027;-58
2021/01/05 05:24:33;;;;;;;18.73;13.63;;;;;;;;;;5117064;28;20028;-57
2021/01/05 05:27:05;;;;;;;23.73;15.80;;;;;;;;;;5113031;28;20057;-59
2021/01/05 05:29:51;;;;;;;21.80;14.33;;;;;;;;;;5116438;28;20019;-59
2021/01/05 05:32:35;;;;;;;21.00;16.43;;;;;;;;;;5116961;28;20049;-58
2021/01/05 05:35:35;;;;;;;25.60;17.07;;;;;;;;;;5117324;28;20020;-59
2021/01/05 05:38:20;;;;;;;19.03;15.40;;;;;;;;;;5119080;28;20023;-57
2021/01/05 05:41:10;;;;;;;25.83;17.00;;;;;;;;;;5097069;28;20389;-59
2021/01/05 05:44:03;;;;;;;18.93;14.03;;;;;;;;;;5115588;28;20483;-59
2021/01/05 05:50:04;;;;;;;22.33;18.73;;;;;;;;;;5115391;28;20092;-58
2021/01/05 05:52:47;;;;;;;27.97;14.70;;;;;;;;;;5115997;28;20123;-57
2021/01/05 05:55:55;;;;;;;;;;;;;;;;;;;;;
2021/01/05 05:58:32;;;;;;;27.40;18.50;;;;;;;;;;5115560;28;20028;-59
2021/01/05 06:01:18;;;;;;;21.33;17.60;;;;;;;;;;5096536;28;20040;-59
2021/01/05 06:03:53;;;;;;;19.87;15.27;;;;;;;;;;5086444;28;20461;-59
2021/01/05 06:06:44;;;;;;;26.47;18.13;;;;;;;;;;5096658;28;20073;-59
2021/01/05 06:09:33;;;;;;;25.73;16.48;;;;;;;;;;5115167;28;20118;-59
2021/01/05 06:12:11;;;;;;;22.93;15.37;;;;;;;;;;5088385;28;20039;-58
2021/01/05 06:14:51;;;;;;;22.73;17.07;;;;;;;;;;5115505;28;20031;-59
2021/01/05 06:17:35;;;;;;;29.40;19.07;;;;;;;;;;5115864;28;20047;-58
2021/01/05 06:20:10;;;;;;;22.73;15.80;;;;;;;;;;5114938;28;20027;-58
2021/01/05 06:23:18;;;;;;;26.97;16.77;;;;;;;;;;5096765;28;20480;-59
2021/01/05 06:26:00;;;;;;;;;;;;;;;;;;;;;
2021/01/05 06:31:42;;;;;;;19.20;15.73;;;;;;;;;;5114209;28;20088;-58
2021/01/05 06:34:23;;;;;;;22.03;17.13;;;;;;;;;;5061094;28;20514;-59
2021/01/05 06:37:30;;;;;;;24.93;17.47;;;;;;;;;;5114994;28;20026;-59
2021/01/05 06:40:41;;;;;;;25.50;18.17;;;;;;;;;;5047415;28;20069;-59
2021/01/05 06:43:17;;;;;;;26.53;16.93;;;;;;;;;;5059510;28;20113;-59
2021/01/05 06:51:50;;;;;;;20.27;15.70;;;;;;;;;;5114684;28;20379;-58
2021/01/05 06:54:27;;;;;;;29.97;18.53;;;;;;;;;;5090701;28;20081;-58
2021/01/05 06:57:28;;;;;;;20.13;16.63;;;;;;;;;;5091017;28;20027;-59
2021/01/05 07:03:39;;;;;;;23.63;16.60;;;;;;;;;;5101169;28;20038;-58
2021/01/05 07:06:29;;;;;;;;;;;;;;;;;;;;;
2021/01/05 07:09:02;;;;;;;22.85;15.55;;;;;;;;;;5114680;28;20095;-59
2021/01/05 07:11:37;;;;;;;19.63;14.77;;;;;;;;;;5097206;28;20044;-59
2021/01/05 07:14:42;;;;;;;;;;;;;;;;;;;;;
2021/01/05 07:17:33;;;;;;;26.90;17.87;;;;;;;;;;5048818;28;20042;-59
2021/01/05 07:20:15;;;;;;;20.25;16.40;;;;;;;;;;5116666;28;20021;-59
2021/01/05 07:26:10;;;;;;;26.20;17.83;;;;;;;;;;5115488;28;20453;-59
2021/01/05 07:32:08;;;;;;;22.83;15.80;;;;;;;;;;5003702;28;20456;-59
2021/01/05 07:34:56;;;;;;;19.63;15.43;;;;;;;;;;4995623;28;20073;-59
2021/01/05 07:38:04;;;;;;;;;;;;;;;;;;;;;
2021/01/05 07:43:49;;;;;;;19.10;15.93;;;;;;;;;;5109126;28;20032;-59
2021/01/05 07:46:32;;;;;;;23.87;16.33;;;;;;;;;;5118769;28;20027;-58
2021/01/05 07:50:06;;;;;;;26.80;18.07;;;;;;;;;;5121829;28;20085;-59
2021/01/05 07:52:44;;;;;;;27.40;17.80;;;;;;;;;;5108842;28;20078;-58
2021/01/05 07:55:19;;;;;;;19.70;17.60;;;;;;;;;;5117912;28;20491;-59
2021/01/05 07:58:11;;;;;;;24.93;15.60;;;;;;;;;;5096340;28;20035;-59
2021/01/05 08:00:58;;;;;;;;;;;;;;;;;;;;;
2021/01/05 08:03:46;;;;;;;;;;;;;;;;;;;;;
2021/01/05 08:06:19;;;;;;;27.30;17.83;;;;;;;;;;5118091;28;20035;-59
2021/01/05 08:09:12;;;;;;;22.93;17.17;;;;;;;;;;5117251;28;20032;-59
2021/01/05 08:12:04;;;;;;;15.83;13.83;;;;;;;;;;5098635;28;20545;-59
2021/01/05 08:14:53;;;;;;;17.30;13.20;;;;;;;;;;5116595;28;20031;-59
2021/01/05 08:17:38;;;;;;;;;;;;;;;;;;;;;
2021/01/05 08:20:06;;;;;;;20.83;14.90;;;;;;;;;;5118215;28;20022;-59
2021/01/05 08:23:08;;;;;;;19.33;14.73;;;;;;;;;;5116952;28;20076;-59
2021/01/05 08:26:01;;;;;;;19.47;15.37;;;;;;;;;;5098389;28;20380;-59
2021/01/05 08:28:37;;;;;;;18.67;14.90;;;;;;;;;;5054151;28;20143;-59
2021/01/05 08:31:24;;;;;;;16.67;13.63;;;;;;;;;;5053141;28;20049;-60
2021/01/05 08:34:25;;;;;;;16.10;14.00;;;;;;;;;;5054764;28;20403;-60
2021/01/05 08:40:34;;;;;;;17.30;13.70;;;;;;;;;;4994193;28;20053;-60
2021/01/05 08:46:30;;;;;;;17.70;13.47;;;;;;;;;;5021539;28;20052;-60
2021/01/05 08:49:12;;;;;;;17.60;11.90;;;;;;;;;;5037342;28;20521;-57
2021/01/05 08:52:02;;;;;;;17.03;14.77;;;;;;;;;;5053654;28;20059;-57
2021/01/05 08:54:35;;;;;;;19.38;15.95;;;;;;;;;;5046799;28;20406;-59
2021/01/05 08:57:08;;;;;;;20.60;12.00;;;;;;;;;;5073661;28;20042;-59
2021/01/05 08:59:52;;;;;;;;;;;;;;;;;;;;;
2021/01/05 09:02:27;;;;;;;18.47;11.40;;;;;;;;;;5117474;28;20482;-57
2021/01/05 09:05:04;;;;;;;14.97;11.30;;;;;;;;;;5117081;28;20028;-59
2021/01/05 09:17:22;;;;;;;17.43;14.47;;;;;;;;;;5116199;28;20030;-59
2021/01/05 09:20:17;;;;;;;15.10;11.47;;;;;;;;;;5116442;28;20023;-59
2021/01/05 09:32:20;;;;;;;24.63;14.90;;;;;;;;;;5102760;28;20035;-59
2021/01/05 09:34:58;;;;;;;21.30;15.20;;;;;;;;;;5093570;28;20112;-58
2021/01/05 09:40:45;;;;;;;19.70;14.00;;;;;;;;;;5087399;28;20020;-59
2021/01/05 09:46:19;;;;;;;24.93;16.27;;;;;;;;;;5102624;28;20024;-59
2021/01/05 09:51:59;;;;;;;22.23;15.20;;;;;;;;;;5097539;28;20355;-59
2021/01/05 09:57:38;;;;;;;21.53;14.93;;;;;;;;;;5033210;28;20087;-59
2021/01/05 10:06:34;;;;;;;16.23;12.77;;;;;;;;;;4973274;28;20031;-58
2021/01/05 10:09:12;;;;;;;21.13;16.17;;;;;;;;;;5045262;28;20375;-59
2021/01/05 10:11:47;;;;;;;23.40;13.87;;;;;;;;;;5029531;28;20049;-58
2021/01/05 10:14:31;;;;;;;;;;;;;;;;;;;;;
2021/01/05 10:17:33;;;;;;;21.57;14.20;;;;;;;;;;5036854;28;20547;-59
2021/01/05 10:20:20;;;;;;;21.80;15.13;;;;;;;;;;5051804;28;20510;-58
2021/01/05 10:23:11;;;;;;;;;;;;;;;;;;;;;
2021/01/05 10:25:39;;;;;;;;;;;;;;;;;;5115742;28;20027;-59
2021/01/05 10:28:37;;;;;;;14.60;11.57;;;;;;;;;;5096181;28;20363;-60
2021/01/05 10:31:03;;;;;;;20.07;13.57;;;;;;;;;;5109088;28;20122;-58
2021/01/05 10:33:35;;;;;;;16.30;11.87;;;;;;;;;;5114640;28;20487;-57
2021/01/05 10:36:39;;;;;;;23.80;16.87;;;;;;;;;;5114532;28;20034;-58
2021/01/05 10:39:39;;;;;;;19.87;14.97;;;;;;;;;;5114336;28;20479;-58
2021/01/05 10:42:24;;;;;;;19.57;12.57;;;;;;;;;;5113792;28;20027;-58
2021/01/05 10:45:03;;;;;;;17.73;15.20;;;;;;;;;;5100801;28;20036;-58
2021/01/05 10:53:51;;;;;;;24.67;17.40;;;;;;;;;;5114898;28;20450;-58
2021/01/05 10:59:31;;;;;;;19.27;15.30;;;;;;;;;;5076554;28;20040;-58
2021/01/05 11:02:21;;;;;;;17.40;14.10;;;;;;;;;;5091915;28;20454;-57
2021/01/05 11:04:57;;;;;;;22.50;16.07;;;;;;;;;;5094966;28;20438;-57
2021/01/05 11:08:08;;;;;;;;;;;;;;;;;;;;;
2021/01/05 11:10:56;;;;;;;20.45;14.73;;;;;;;;;;5092501;28;20032;-58
2021/01/05 11:13:34;;;;;;;17.63;13.63;;;;;;;;;;5094222;28;20064;-58
2021/01/05 11:16:28;;;;;;;20.27;14.00;;;;;;;;;;5093968;28;20024;-53
2021/01/05 11:19:10;;;;;;;18.67;14.63;;;;;;;;;;5093555;28;20024;-56
2021/01/05 11:21:50;;;;;;;16.00;13.00;;;;;;;;;;5094534;28;20077;-54
2021/01/05 11:27:57;;;;;;;19.43;14.50;;;;;;;;;;5077733;28;20024;-54
2021/01/05 11:30:30;;;;;;;19.80;14.73;;;;;;;;;;5093960;28;20028;-59
2021/01/05 11:33:22;;;;;;;21.77;15.73;;;;;;;;;;5093975;28;20115;-56
2021/01/05 11:36:20;;;;;;;;;;;;;;;;;;;;;
2021/01/05 11:39:05;;;;;;;;;;;;;;;;;;;;;
2021/01/05 11:41:36;;;;;;;26.13;17.27;;;;;;;;;;5094016;28;20437;-57
2021/01/05 11:44:12;;;;;;;18.42;13.90;;;;;;;;;;5088886;28;20101;-55
2021/01/05 11:50:21;;;;;;;17.73;13.00;;;;;;;;;;4996918;28;20034;-56
2021/01/05 11:56:00;;;;;;;18.13;13.68;;;;;;;;;;4992158;28;20129;-57
2021/01/05 12:01:45;;;;;;;16.50;13.37;;;;;;;;;;4980103;28;20061;-56
2021/01/05 12:07:34;;;;;;;18.13;13.03;;;;;;;;;;5041494;28;20382;-57
2021/01/05 12:10:28;;;;;;;20.37;15.03;;;;;;;;;;5053752;28;20036;-56
2021/01/05 12:13:00;;;;;;;18.47;13.97;;;;;;;;;;5052271;28;20047;-58
2021/01/05 12:15:46;;;;;;;22.50;15.20;;;;;;;;;;5056775;28;20161;-57
2021/01/05 12:18:23;;;;;;;19.33;15.00;;;;;;;;;;5078789;28;20469;-58
2021/01/05 12:21:05;;;;;;;25.17;16.27;;;;;;;;;;5078148;28;20492;-57
2021/01/05 12:23:39;;;;;;;23.33;13.27;;;;;;;;;;5076856;28;20470;-56
2021/01/05 12:26:29;;;;;;;19.73;13.50;;;;;;;;;;5073889;28;20127;-57
2021/01/05 12:29:07;;;;;;;24.40;15.52;;;;;;;;;;5071547;28;20481;-58
2021/01/05 12:32:05;;;;;;;19.67;15.67;;;;;;;;;;5077470;28;20477;-58
2021/01/05 12:34:56;;;;;;;;;;;;;;;;;;;;;
2021/01/05 12:37:35;;;;;;;21.60;15.25;;;;;;;;;;5095760;28;20384;-58
2021/01/05 12:40:07;;;;;;;21.20;15.63;;;;;;;;;;5095174;28;20020;-56
2021/01/05 12:42:56;;;;;;;22.53;16.40;;;;;;;;;;5096453;28;20097;-57
2021/01/05 12:49:07;;;;;;;19.63;14.17;;;;;;;;;;5013748;28;20066;-57
2021/01/05 12:51:46;;;;;;;21.70;15.13;;;;;;;;;;4996913;28;20092;-59
2021/01/05 12:54:48;;;;;;;18.90;15.17;;;;;;;;;;5013461;28;20034;-58
2021/01/05 13:00:30;;;;;;;28.38;15.95;;;;;;;;;;5014412;28;20065;-58
2021/01/05 13:05:59;;;;;;;24.73;16.47;;;;;;;;;;5010964;28;20071;-60
2021/01/05 13:08:37;;;;;;;24.30;17.70;;;;;;;;;;5096565;28;20448;-60
2021/01/05 13:11:19;;;;;;;20.07;15.60;;;;;;;;;;5095020;28;20051;-60
2021/01/05 13:13:51;;;;;;;21.37;16.30;;;;;;;;;;5094613;28;20028;-59
2021/01/05 13:16:47;;;;;;;23.30;16.33;;;;;;;;;;5096547;28;20027;-60
2021/01/05 13:19:17;;;;;;;26.13;16.63;;;;;;;;;;5094388;28;20485;-60
2021/01/05 13:22:14;;;;;;;23.80;14.93;;;;;;;;;;5076650;28;20036;-60
2021/01/05 13:25:01;;;;;;;22.03;15.83;;;;;;;;;;5094614;28;20039;-60
2021/01/05 13:27:48;;;;;;;23.17;16.33;;;;;;;;;;5088626;28;20127;-60
2021/01/05 13:30:17;;;;;;;27.47;18.90;;;;;;;;;;5094122;28;20362;-60
2021/01/05 13:36:29;;;;;;;21.87;15.20;;;;;;;;;;5095602;28;20504;-60
2021/01/05 13:39:20;;;;;;;19.60;16.37;;;;;;;;;;5091928;28;20024;-60
2021/01/05 13:45:33;;;;;;;23.60;16.40;;;;;;;;;;5005276;28;20094;-60
2021/01/05 13:48:08;;;;;;;21.00;14.63;;;;;;;;;;5094678;28;20034;-60
2021/01/05 13:50:54;;;;;;;23.70;15.77;;;;;;;;;;5095921;28;20024;-59
2021/01/05 13:53:20;;;;;;;22.27;16.73;;;;;;;;;;5092935;28;20040;-60
2021/01/05 13:58:51;;;;;;;;;;;;;;;;;;;;;
2021/01/05 14:07:52;;;;;;;19.13;14.03;;;;;;;;;;5051887;28;20036;-60
2021/01/05 14:10:35;;;;;;;18.00;13.03;;;;;;;;;;5035741;28;20036;-60
2021/01/05 14:13:13;;;;;;;20.00;15.43;;;;;;;;;;5019249;28;20410;-58
2021/01/05 14:15:56;;;;;;;19.80;14.73;;;;;;;;;;5046828;28;20036;-59
2021/01/05 14:18:39;;;;;;;23.60;15.53;;;;;;;;;;5053757;28;20040;-58
2021/01/05 14:21:15;;;;;;;20.30;14.60;;;;;;;;;;5072858;28;20032;-58
2021/01/05 14:30:03;;;;;;;;;;;;;;;;;;;;;
2021/01/05 14:32:32;;;;;;;20.37;14.90;;;;;;;;;;5067358;28;20051;-59
2021/01/05 14:35:36;;;;;;;18.37;14.50;;;;;;;;;;5054661;28;20501;-59
2021/01/05 14:38:27;;;;;;;19.23;13.97;;;;;;;;;;5054418;28;20145;-59
2021/01/05 14:41:14;;;;;;;25.02;15.95;;;;;;;;;;5054019;28;20086;-59
2021/01/05 14:44:00;;;;;;;21.67;14.10;;;;;;;;;;5070530;28;20032;-59
2021/01/05 14:46:33;;;;;;;16.00;12.83;;;;;;;;;;5088916;28;20473;-59
2021/01/05 14:49:18;;;;;;;17.87;12.37;;;;;;;;;;5079153;28;20491;-59
2021/01/05 14:52:06;;;;;;;20.43;14.80;;;;;;;;;;5096445;28;20038;-59
2021/01/05 14:54:57;;;;;;;17.80;13.27;;;;;;;;;;5112719;28;20081;-59
2021/01/05 14:57:55;;;;;;;20.03;15.00;;;;;;;;;;5113947;28;20047;-59
2021/01/05 15:00:59;;;;;;;18.37;13.87;;;;;;;;;;5094949;28;20802;-59
2021/01/05 15:03:28;;;;;;;20.07;13.40;;;;;;;;;;5093883;28;20032;-60
2021/01/05 15:06:08;;;;;;;21.07;13.43;;;;;;;;;;5094210;28;20085;-59
2021/01/05 15:08:47;;;;;;;;;;;;;;;;;;;;;
2021/01/05 15:11:20;;;;;;;20.10;14.03;;;;;;;;;;5109546;28;20028;-59
2021/01/05 15:14:09;;;;;;;17.37;12.87;;;;;;;;;;5096089;28;20030;-60
2021/01/05 15:16:38;;;;;;;18.63;12.53;;;;;;;;;;5113980;28;20020;-60
2021/01/05 15:19:26;;;;;;;19.30;13.73;;;;;;;;;;5094628;28;20035;-60
2021/01/05 15:22:31;;;;;;;20.03;14.27;;;;;;;;;;5095183;28;20028;-60
2021/01/05 15:25:09;;;;;;;14.80;13.10;;;;;;;;;;5096558;28;20485;-60
2021/01/05 15:27:50;;;;;;;16.70;12.23;;;;;;;;;;5114510;28;20099;-59
2021/01/05 15:30:40;;;;;;;16.17;13.23;;;;;;;;;;5113849;28;20024;-60
2021/01/05 15:36:28;;;;;;;;;;;;;;;;;;5115046;28;20111;-60
2021/01/05 15:39:10;;;;;;;;;;;;;;;;;;;;;
2021/01/05 15:42:09;;;;;;;16.03;10.87;;;;;;;;;;5117304;28;20030;-60
2021/01/05 15:44:49;;;;;;;16.23;11.27;;;;;;;;;;5097252;28;20028;-60
2021/01/05 15:50:30;;;;;;;14.60;9.57;;;;;;;;;;5103872;28;20045;-60
2021/01/05 15:53:26;;;;;;;18.50;12.87;;;;;;;;;;5111160;28;20039;-59
2021/01/05 15:56:31;;;;;;;;;;;;;;;;;;;;;
2021/01/05 15:59:22;;;;;;;;;;;;;;;;;;;;;
2021/01/05 16:02:30;;;;;;;16.53;11.77;;;;;;;;;;5093080;28;20495;-60
2021/01/05 16:05:09;;;;;;;13.03;10.90;;;;;;;;;;5097823;28;20419;-60
2021/01/05 16:07:47;;;;;;;18.50;12.00;;;;;;;;;;5095452;28;20038;-60
2021/01/05 16:10:19;;;;;;;18.03;13.13;;;;;;;;;;5097762;28;20062;-60
2021/01/05 16:13:05;;;;;;;14.83;10.53;;;;;;;;;;5096803;28;20032;-60
2021/01/05 16:15:46;;;;;;;15.87;11.23;;;;;;;;;;5077838;28;20046;-60
2021/01/05 16:18:17;;;;;;;14.18;11.85;;;;;;;;;;5078204;28;20048;-60
2021/01/05 16:21:02;;;;;;;13.87;11.47;;;;;;;;;;5097494;28;20024;-60
2021/01/05 16:24:22;;;;;;;16.07;11.87;;;;;;;;;;5097404;28;20020;-60
2021/01/05 16:27:06;;;;;;;18.50;13.63;;;;;;;;;;5087563;28;20427;-60
2021/01/05 16:29:47;;;;;;;15.40;10.60;;;;;;;;;;5059829;28;20055;-60
2021/01/05 16:38:57;;;;;;;15.33;11.57;;;;;;;;;;5086099;28;20035;-60
2021/01/05 16:41:44;;;;;;;17.97;11.30;;;;;;;;;;5095896;28;20035;-60
2021/01/05 16:44:15;;;;;;;17.80;12.50;;;;;;;;;;5095301;28;20036;-60
2021/01/05 16:47:07;;;;;;;21.37;12.67;;;;;;;;;;5095472;28;20028;-60
2021/01/05 16:56:08;;;;;;;15.57;11.77;;;;;;;;;;5096593;28;20424;-60
2021/01/05 16:58:51;;;;;;;18.03;12.47;;;;;;;;;;5088739;28;20104;-61
2021/01/05 17:01:27;;;;;;;22.33;13.07;;;;;;;;;;5096345;28;20036;-61
2021/01/05 17:09:57;;;;;;;17.30;12.50;;;;;;;;;;5063107;28;20032;-60
2021/01/05 17:12:49;;;;;;;19.27;11.60;;;;;;;;;;5092768;28;20044;-58
2021/01/05 17:15:44;;;;;;;20.47;14.90;;;;;;;;;;5095852;28;20028;-58
2021/01/05 17:18:36;;;;;;;18.57;12.80;;;;;;;;;;5094274;28;20032;-58
2021/01/05 17:21:14;;;;;;;16.63;12.67;;;;;;;;;;5071946;28;20032;-58
2021/01/05 17:24:03;;;;;;;15.50;11.43;;;;;;;;;;5093253;28;20032;-58
2021/01/05 17:26:39;;;;;;;16.73;12.10;;;;;;;;;;5089705;28;20036;-58
2021/01/05 17:35:33;;;;;;;15.87;12.47;;;;;;;;;;5095743;28;20026;-58
2021/01/05 17:40:55;;;;;;;18.67;12.05;;;;;;;;;;5093434;28;20028;-58
2021/01/05 17:43:40;;;;;;;19.53;12.63;;;;;;;;;;5096019;28;20024;-59
2021/01/05 17:46:30;;;;;;;14.73;11.23;;;;;;;;;;5095166;28;20065;-60
2021/01/05 17:49:22;;;;;;;13.57;10.47;;;;;;;;;;5093978;28;20509;-60
2021/01/05 17:52:06;;;;;;;17.70;12.67;;;;;;;;;;5095761;28;20097;-60
2021/01/05 17:55:01;;;;;;;;;;;;;;;;;;;;;
2021/01/05 17:57:52;;;;;;;;;;;;;;;;;;;;;
2021/01/05 18:00:32;;;;;;;14.30;12.23;;;;;;;;;;5115913;28;20090;-58
2021/01/05 18:03:19;;;;;;;15.90;12.93;;;;;;;;;;5053141;28;20033;-58
2021/01/05 18:05:54;;;;;;;17.97;12.47;;;;;;;;;;5037044;28;20036;-58
2021/01/05 18:11:39;;;;;;;16.10;12.87;;;;;;;;;;4993750;28;20030;-58
2021/01/05 18:14:40;;;;;;;15.87;14.17;;;;;;;;;;4993225;28;20030;-58
2021/01/05 18:17:21;;;;;;;17.42;11.88;;;;;;;;;;5039784;28;20542;-58
2021/01/05 18:20:00;;;;;;;16.30;12.55;;;;;;;;;;5053314;28;20483;-58
2021/01/05 18:22:34;;;;;;;19.43;15.13;;;;;;;;;;5035917;28;20033;-58
2021/01/05 18:25:19;;;;;;;19.57;13.70;;;;;;;;;;5036926;28;20090;-58
2021/01/05 18:28:08;;;;;;;16.27;12.33;;;;;;;;;;5089518;28;20492;-58
2021/01/05 18:30:53;;;;;;;13.63;11.07;;;;;;;;;;5076808;28;20039;-58
2021/01/05 18:33:44;;;;;;;12.33;8.73;;;;;;;;;;5110002;28;20054;-58
2021/01/05 18:36:34;;;;;;;15.37;11.30;;;;;;;;;;5115059;28;20422;-58
2021/01/05 18:39:12;;;;;;;14.23;11.63;;;;;;;;;;5032385;28;20531;-58
2021/01/05 18:45:09;;;;;;;15.43;11.60;;;;;;;;;;5052875;28;20487;-58
2021/01/05 18:50:46;;;;;;;14.60;11.57;;;;;;;;;;5039057;28;20108;-58
2021/01/05 18:53:31;;;;;;;17.80;13.70;;;;;;;;;;5050323;28;20062;-58
2021/01/05 18:56:26;;;;;;;16.83;13.17;;;;;;;;;;5098011;28;20481;-58
2021/01/05 19:02:34;;;;;;;21.33;11.83;;;;;;;;;;5083285;28;20538;-58
2021/01/05 19:05:38;;;;;;;15.30;10.63;;;;;;;;;;5095859;28;20058;-58
2021/01/05 19:08:39;;;;;;;16.13;12.77;;;;;;;;;;5115220;28;20402;-58
2021/01/05 19:11:11;;;;;;;14.02;11.43;;;;;;;;;;5095644;28;20031;-58
2021/01/05 19:13:54;;;;;;;14.83;12.07;;;;;;;;;;5095074;28;20397;-58
2021/01/05 19:16:40;;;;;;;18.97;14.47;;;;;;;;;;5117745;28;20429;-58
2021/01/05 19:19:34;;;;;;;14.23;11.70;;;;;;;;;;5092264;28;20039;-58
2021/01/05 19:22:26;;;;;;;19.30;14.33;;;;;;;;;;5079573;28;20072;-58
2021/01/05 19:25:12;;;;;;;15.07;13.00;;;;;;;;;;5117606;28;20031;-58
2021/01/05 19:27:51;;;;;;;16.17;11.97;;;;;;;;;;5117627;28;20465;-58
2021/01/05 19:30:32;;;;;;;19.20;13.27;;;;;;;;;;5097638;28;20492;-58
2021/01/05 19:33:14;;;;;;;16.90;13.90;;;;;;;;;;5119017;28;20035;-58
2021/01/05 19:42:32;;;;;;;20.13;15.10;;;;;;;;;;5117433;28;20039;-60
2021/01/05 19:45:13;;;;;;;18.03;13.53;;;;;;;;;;5117519;28;20023;-60
2021/01/05 19:47:51;;;;;;;14.87;12.73;;;;;;;;;;5111724;28;20529;-60
2021/01/05 19:50:38;;;;;;;15.87;12.10;;;;;;;;;;5117953;28;20047;-60
2021/01/05 19:53:15;;;;;;;23.07;15.33;;;;;;;;;;5118921;28;20027;-60
2021/01/05 19:56:04;;;;;;;19.03;14.07;;;;;;;;;;5081869;28;20523;-60
2021/01/05 19:58:52;;;;;;;21.93;14.90;;;;;;;;;;5118393;28;20028;-60
2021/01/05 20:08:03;;;;;;;18.97;14.43;;;;;;;;;;5079637;28;20053;-60
2021/01/05 20:10:47;;;;;;;20.47;15.10;;;;;;;;;;5035534;28;20033;-58
2021/01/05 20:13:43;;;;;;;21.53;15.60;;;;;;;;;;5038495;28;20063;-58
2021/01/05 20:19:33;;;;;;;;;;;;;;;;;;;;;
2021/01/05 20:22:26;;;;;;;20.70;13.30;;;;;;;;;;5096087;28;19963;-58
2021/01/05 20:24:58;;;;;;;18.20;13.10;;;;;;;;;;5089979;28;20040;-58
2021/01/05 20:28:03;;;;;;;15.33;13.40;;;;;;;;;;5077920;28;20477;-58
2021/01/05 20:31:09;;;;;;;;;;;;;;;;;;;;;
2021/01/05 20:33:52;;;;;;;22.13;15.30;;;;;;;;;;5083831;28;20510;-58
2021/01/05 20:42:35;;;;;;;20.97;15.50;;;;;;;;;;5083569;28;20036;-58
2021/01/05 20:45:19;;;;;;;20.00;15.17;;;;;;;;;;5062153;28;20031;-58
2021/01/05 20:47:58;;;;;;;23.07;15.03;;;;;;;;;;5096920;28;20086;-58
2021/01/05 20:54:00;;;;;;;22.87;16.87;;;;;;;;;;5083636;28;20043;-58
2021/01/05 20:57:01;;;;;;;23.77;17.00;;;;;;;;;;5097651;28;20035;-58
2021/01/05 20:59:45;;;;;;;21.77;14.37;;;;;;;;;;5093137;28;20044;-58
2021/01/05 21:02:48;;;;;;;;;;;;;;;;;;;;;
2021/01/05 21:05:34;;;;;;;21.20;13.17;;;;;;;;;;5117068;28;20122;-58
2021/01/05 21:08:27;;;;;;;25.70;15.27;;;;;;;;;;5111261;28;20091;-58